KGUS/GUS METAR and TAF weather

Enter ICAO airport designator
Station Type Date Time Source
KGUS METAR 2019/04/23 03:56 UTC NOAA

KGUS 230356Z AUTO 17008KT 10SM FEW075 BKN100 17/11 A2996 RMK AO2 SLP145 T01710109 $


Station Type Date Time Source
KGUS Decoded METAR 2019/04/23 03:56 UTC NOAA

Grissom Air Force Base / Peru, IN, United States (KGUS) 40-39N 086-09W
Apr 22, 2019 - 11:56 PM EDT / 2019.04.23 0356 UTC
Wind: from the S (170 degrees) at 9 MPH (8 KT):0
Visibility: 10 mile(s):0
Sky conditions: mostly cloudy
Temperature: 62.8 F (17.1 C)
Dew Point: 51.6 F (10.9 C)
Relative Humidity: 66%
Pressure (altimeter): 29.96 in. Hg (1014 hPa)
ob: KGUS 230356Z AUTO 17008KT 10SM FEW075 BKN100 17/11 A2996 RMK AO2 SLP145 T01710109
cycle: 4

Station Type Date Time Source
KGUS TAF 2019/04/23 03:08 UTC NOAA

TAF KGUS 230300Z 2303/2409 19010KT 9999 FEW020 SCT050 BKN140 621403 510102 QNH2991INS
BECMG 2308/2309 23012KT 9999 SCT010 BKN015 OVC020 510103 QNH2991INS
TEMPO 2312/2315 BKN009
BECMG 2314/2315 27012G18KT 9999 BKN010 510103 QNH2994INS
TEMPO 2315/2318 27015G25KT 9000 -SHRA
BECMG 2320/2321 32009KT 9999 FEW010 SCT020 SCT300 510103 523406 QNH3002INS
BECMG 2323/2324 33006KT 9999 SKC 522702 523902 QNH3003INS TX18/2315Z TN06/2403Z

Example: see airport list